Latest Weather Observations for Lucas Heights

IDN60801

Issued at 1:32 pm EST Friday 6 May 2016 (issued every 30 minutes, with the page automatically refreshed every 10 minutes)

About weather observations | Map of weather stations | Latest weather observations for NSW | Other Formats
Station Details ID: 066023 Name: LUCAS HEIGHTS AWS Lat: -34.05 Lon: 150.98 Height: 140.0 m
Data from the previous 72 hours. | See also: Recent months for locations in New South Wales
Date/Time
EST
Temp
°C
App
Temp
°C
Dew
Point
Rel
Hum
%
Delta-T
°C
Wind Press
QNH
hPa
Press
MSL
hPa
Rain
since 9 am
mm
Dir
 
Spd
km/h
Gust
km/h
Spd
kts
Gust
kts
06/01:15pm 24.8 23.5 10.1 39 8.2 ESE 7 11 4 6 1017.3 - 0.0
06/01:00pm 24.4 23.0 9.7 39 8.1 ESE 7 13 4 7 1017.4 - 0.0
06/12:45pm 24.6 23.4 9.7 39 8.2 SE 6 11 3 6 1017.5 - 0.0
06/12:30pm 24.3 23.2 10.1 40 7.9 W 6 11 3 6 1017.8 - 0.0
06/12:15pm 24.1 22.8 9.9 40 7.8 WSW 7 13 4 7 1017.9 - 0.0
06/12:00pm 24.0 22.4 10.1 41 7.7 WSW 9 17 5 9 1018.2 - 0.0
06/11:45am 23.2 21.2 10.0 43 7.3 WSW 11 19 6 10 1018.4 - 0.0
06/11:30am 22.7 20.6 9.9 44 7.0 W 11 19 6 10 1018.6 - 0.0
06/11:15am 22.8 21.3 10.6 46 6.8 W 9 19 5 10 1018.8 - 0.0
06/11:00am 22.1 19.8 10.3 47 6.5 WSW 13 19 7 10 1019.1 - 0.0
06/10:45am 21.6 19.0 10.6 49 6.1 W 15 24 8 13 1019.2 - 0.0
06/10:30am 21.4 19.2 10.7 50 5.9 W 13 19 7 10 1019.3 - 0.0
06/10:15am 21.0 19.2 10.8 52 5.6 W 11 20 6 11 1019.4 - 0.0
06/10:00am 20.7 18.1 10.8 53 5.4 W 15 22 8 12 1019.3 - 0.0
06/09:45am 20.2 17.9 10.6 54 5.2 W 13 22 7 12 1019.4 - 0.0
06/09:30am 20.0 17.8 10.8 55 5.0 WSW 13 19 7 10 1019.5 - 0.0
06/09:15am 19.6 17.5 11.0 57 4.7 WSW 13 19 7 10 1019.5 - 0.0
06/09:00am 18.9 16.4 10.9 59 4.4 WSW 15 19 8 10 1019.5 - 0.0
06/08:45am 18.1 16.0 11.0 63 3.9 WSW 13 19 7 10 1019.6 - 0.0
06/08:30am 17.0 13.9 10.3 64 3.6 WSW 17 19 9 10 1019.6 - 0.0
06/08:15am 16.6 13.8 10.1 65 3.4 W 15 19 8 10 1019.5 - 0.0
06/08:00am 16.2 12.6 9.8 66 3.4 W 19 20 10 11 1019.4 - 0.0
06/07:45am 15.4 11.5 9.6 68 3.0 W 20 22 11 12 1019.2 - 0.0
06/07:30am 14.6 10.8 9.0 69 2.9 WSW 19 20 10 11 1018.8 - 0.0
06/07:15am 14.6 10.6 9.1 69 2.8 WSW 20 22 11 12 1018.5 - 0.0
06/07:00am 14.3 9.9 8.9 70 2.8 WSW 22 24 12 13 1018.3 - 0.0
06/06:45am 14.2 9.8 8.8 70 2.8 WSW 22 24 12 13 1018.2 - 0.0
06/06:30am 14.3 10.4 8.8 69 2.8 W 19 20 10 11 1017.9 - 0.0
06/06:15am 13.9 10.0 8.8 71 2.6 W 19 20 10 11 1017.8 - 0.0
06/06:00am 14.0 10.8 8.6 70 2.7 W 15 19 8 10 1017.7 - 0.0
06/05:45am 14.5 11.5 9.1 70 2.8 W 15 20 8 11 1017.7 - 0.0
06/05:30am 14.6 11.6 9.4 71 2.7 W 15 17 8 9 1017.6 - 0.0
06/05:15am 14.4 11.3 8.9 69 2.8 W 15 19 8 10 1017.5 - 0.0
06/05:00am 15.2 12.3 9.6 69 2.9 W 15 19 8 10 1017.4 - 0.0
06/04:45am 15.3 11.8 10.3 72 2.6 W 19 22 10 12 1017.4 - 0.0
06/04:30am 13.9 10.2 10.1 78 2.0 WSW 20 22 11 12 1017.3 - 0.0
06/04:15am 12.6 9.1 8.6 76 2.0 WSW 17 19 9 10 1017.3 - 0.0
06/04:00am 13.5 10.2 9.7 78 2.0 WSW 17 19 9 10 1017.1 - 0.0
06/03:45am 12.6 9.3 9.6 82 1.5 WSW 17 19 9 10 1017.1 - 0.0
06/03:30am 12.2 9.6 9.3 82 1.5 WSW 13 17 7 9 1017.1 - 0.0
06/03:15am 12.8 10.0 10.1 84 1.4 SW 15 19 8 10 1017.0 - 0.0
06/03:00am 13.2 10.4 11.3 88 1.0 SW 17 19 9 10 1017.1 - 0.0
06/02:45am 12.8 9.8 11.8 94 0.5 SW 19 20 10 11 1017.3 - 0.0
06/02:30am 12.0 9.2 11.3 95 0.4 SSW 17 19 9 10 1017.3 - 0.0
06/02:15am 11.8 9.4 11.3 97 0.3 SW 15 17 8 9 1017.3 - 0.0
06/02:00am 11.7 9.6 11.2 97 0.3 SW 13 17 7 9 1017.2 - 0.0
06/01:45am 11.9 9.1 11.5 97 0.2 SW 17 19 9 10 1017.2 - 0.0
06/01:30am 12.0 9.6 11.5 97 0.3 SW 15 19 8 10 1017.3 - 0.0
06/01:15am 12.3 10.0 11.9 97 0.2 SW 15 17 8 9 1017.4 - 0.0
06/01:00am 12.6 9.7 12.3 98 0.2 SW 19 19 10 10 1017.5 - 0.0
06/12:45am 12.3 9.7 12.0 98 0.2 SW 17 19 9 10 1017.4 - 0.0
06/12:30am 12.2 9.9 11.8 97 0.2 SW 15 17 8 9 1017.5 - 0.0
06/12:15am 11.9 9.8 11.3 96 0.3 SW 13 15 7 8 1017.7 - 0.0
06/12:00am 12.4 10.1 11.7 95 0.4 SW 15 17 8 9 1017.9 - 0.0
 
Date/Time
EST
Temp
°C
App
Temp
°C
Dew
Point
Rel
Hum
%
Delta-T
°C
Wind Press
QNH
hPa
Press
MSL
hPa
Rain
since 9 am
mm
Dir
 
Spd
km/h
Gust
km/h
Spd
kts
Gust
kts
05/11:45pm 13.6 11.7 13.0 96 0.3 SW 15 17 8 9 1017.9 - 0.0
05/11:30pm 14.2 12.6 13.8 97 0.2 WSW 15 17 8 9 1018.0 - 0.0
05/11:15pm 13.8 12.4 13.4 97 0.2 WSW 13 15 7 8 1017.9 - 0.0
05/11:00pm 12.8 11.8 12.3 97 0.3 W 9 13 5 7 1018.0 - 0.0
05/10:45pm 12.4 12.2 11.8 96 0.3 W 4 7 2 4 1018.0 - 0.0
05/10:30pm 12.6 12.4 11.9 95 0.4 W 4 6 2 3 1018.1 - 0.0
05/10:15pm 12.9 12.8 12.2 95 0.4 WNW 4 6 2 3 1018.3 - 0.0
05/10:00pm 12.8 12.7 12.0 95 0.4 N 4 4 2 2 1018.3 - 0.0
05/09:45pm 12.8 12.6 11.9 94 0.5 N 4 7 2 4 1018.4 - 0.0
05/09:30pm 13.3 12.8 12.2 93 0.6 N 6 9 3 5 1018.4 - 0.0
05/09:15pm 13.5 12.9 12.3 92 0.7 N 7 11 4 6 1018.4 - 0.0
05/09:00pm 13.6 13.0 12.3 92 0.7 NNE 7 11 4 6 1018.4 - 0.0
05/08:45pm 13.9 13.4 12.5 91 0.8 NNE 7 11 4 6 1018.5 - 0.0
05/08:30pm 14.3 13.8 12.8 91 0.8 NNE 7 11 4 6 1018.4 - 0.0
05/08:15pm 14.4 13.9 12.7 89 0.9 NE 7 11 4 6 1018.4 - 0.0
05/08:00pm 14.6 14.1 12.7 88 1.0 NE 7 11 4 6 1018.2 - 0.0
05/07:45pm 14.8 13.9 12.7 87 1.2 NE 9 13 5 7 1018.2 - 0.0
05/07:30pm 15.2 14.4 12.9 86 1.3 NE 9 13 5 7 1018.1 - 0.0
05/07:15pm 15.3 14.5 12.8 85 1.4 NE 9 11 5 6 1018.1 - 0.0
05/07:00pm 15.4 14.5 12.6 83 1.5 NE 9 11 5 6 1017.9 - 0.0
05/06:45pm 15.8 14.9 12.6 81 1.8 NE 9 11 5 6 1017.8 - 0.0
05/06:30pm 16.2 14.9 12.6 79 2.0 ENE 11 13 6 7 1017.7 - 0.0
05/06:15pm 16.6 15.3 12.6 77 2.2 ENE 11 13 6 7 1017.6 - 0.0
05/06:00pm 16.9 15.2 12.5 75 2.4 NE 13 17 7 9 1017.4 - 0.0
05/05:45pm 17.1 15.3 12.0 72 2.8 NE 13 17 7 9 1017.2 - 0.0
05/05:30pm 17.6 16.1 12.0 69 3.1 ENE 11 15 6 8 1017.1 - 0.0
05/05:15pm 18.0 16.5 12.0 68 3.3 ENE 11 13 6 7 1017.0 - 0.0
05/05:00pm 18.6 16.8 12.0 65 3.7 NE 13 17 7 9 1016.9 - 0.0
05/04:45pm 19.2 17.4 12.0 63 4.0 NE 13 17 7 9 1016.9 - 0.0
05/04:30pm 20.0 18.6 12.1 60 4.4 ENE 11 19 6 10 1016.9 - 0.0
05/04:15pm 20.5 18.2 11.9 57 4.8 ENE 15 20 8 11 1016.9 - 0.0
05/04:00pm 21.3 19.3 11.6 54 5.4 ENE 13 19 7 10 1016.9 - 0.0
05/03:45pm 22.2 20.5 9.8 45 6.8 N 9 13 5 7 1016.8 - 0.0
05/03:30pm 22.3 20.5 9.6 44 6.9 NNW 9 17 5 9 1016.7 - 0.0
05/03:15pm 22.0 20.3 9.8 45 6.6 NNW 9 15 5 8 1016.8 - 0.0
05/03:00pm 21.8 19.7 9.6 45 6.6 N 11 17 6 9 1016.8 - 0.0
05/02:45pm 21.8 19.7 9.8 46 6.5 N 11 19 6 10 1016.7 - 0.0
05/02:30pm 21.8 20.1 9.7 46 6.6 NNW 9 13 5 7 1016.8 - 0.0
05/02:15pm 21.6 20.3 10.0 47 6.3 N 7 15 4 8 1016.8 - 0.0
05/02:00pm 21.2 19.6 10.1 49 6.0 N 9 15 5 8 1016.9 - 0.0
05/01:45pm 21.4 19.9 10.5 49 6.0 N 9 17 5 9 1017.0 - 0.0
05/01:30pm 21.3 20.0 10.1 48 6.1 NW 7 13 4 7 1017.1 - 0.0
05/01:15pm 21.2 19.9 9.8 48 6.2 NNW 7 13 4 7 1017.3 - 0.0
05/01:00pm 21.2 20.0 10.2 49 6.0 NNW 7 19 4 10 1017.5 - 0.0
05/12:45pm 20.9 19.2 9.9 49 6.0 NNW 9 15 5 8 1017.8 - 0.0
05/12:30pm 21.1 20.0 9.8 48 6.1 NNW 6 13 3 7 1018.0 - 0.0
05/12:15pm 20.8 19.5 10.0 50 5.9 N 7 13 4 7 1018.3 - 0.0
05/12:00pm 20.4 19.0 9.7 50 5.8 N 7 13 4 7 1018.6 - 0.0
05/11:45am 20.2 18.7 9.3 49 5.8 NW 7 13 4 7 1018.9 - 0.0
05/11:30am 20.2 18.7 9.1 49 5.9 WNW 7 13 4 7 1019.2 - 0.0
05/11:15am 20.0 18.6 9.4 50 5.7 NW 7 13 4 7 1019.4 - 0.0
05/11:00am 19.9 18.4 9.3 50 5.6 WNW 7 13 4 7 1019.8 - 0.0
05/10:45am 19.3 17.3 8.8 50 5.5 W 9 13 5 7 1020.0 - 0.0
05/10:30am 19.0 17.0 8.7 51 5.4 W 9 13 5 7 1020.2 - 0.0
05/10:15am 18.6 16.9 8.2 50 5.4 W 7 13 4 7 1020.4 - 0.0
05/10:00am 18.2 16.1 8.4 52 5.1 W 9 17 5 9 1020.4 - 0.0
05/09:45am 18.4 16.3 8.4 52 5.2 W 9 17 5 9 1020.5 - 0.0
05/09:30am 17.9 15.3 7.9 52 5.1 WSW 11 13 6 7 1020.6 - 0.0
05/09:15am 17.8 15.7 8.2 53 4.9 W 9 13 5 7 1020.6 - 0.0
05/09:00am 17.4 15.2 7.9 53 4.9 WSW 9 17 5 9 1020.6 - 0.0
05/08:45am 17.0 14.0 7.9 55 4.6 WSW 13 17 7 9 1020.5 - 0.0
05/08:30am 16.4 13.4 7.9 57 4.3 SW 13 19 7 10 1020.4 - 0.0
05/08:15am 15.8 12.4 7.7 58 4.1 SW 15 20 8 11 1020.3 - 0.0
05/08:00am 15.0 11.1 7.3 60 3.8 SW 17 19 9 10 1020.3 - 0.0
05/07:45am 14.3 10.0 7.1 62 3.5 SW 19 22 10 12 1020.3 - 0.0
05/07:30am 13.5 9.6 6.9 64 3.2 SW 17 22 9 12 1020.2 - 0.0
05/07:15am 12.7 9.0 6.5 66 3.0 SW 15 20 8 11 1020.0 - 0.0
05/07:00am 12.7 9.0 6.4 65 3.0 SW 15 19 8 10 1019.8 - 0.0
05/06:45am 12.3 8.3 6.8 69 2.7 SW 17 20 9 11 1019.6 - 0.0
05/06:30am 12.0 8.1 7.0 71 2.4 SSW 17 22 9 12 1019.5 - 0.0
05/06:15am 11.1 7.5 6.9 75 2.0 SSW 15 19 8 10 1019.4 - 0.0
05/06:00am 10.8 7.2 6.7 76 1.9 SSW 15 19 8 10 1019.3 - 0.0
05/05:45am 10.8 7.2 6.6 75 2.0 SSW 15 19 8 10 1019.2 - 0.0
05/05:30am 11.4 7.9 7.1 75 2.1 SSW 15 20 8 11 1019.1 - 0.0
05/05:15am 11.5 7.8 7.9 78 1.8 SSW 17 20 9 11 1019.1 - 0.0
05/05:00am 11.7 8.3 9.1 84 1.3 SSW 17 20 9 11 1018.8 - 0.0
05/04:45am 11.4 8.2 9.9 90 0.8 SSW 17 22 9 12 1018.8 - 0.0
05/04:30am 10.9 7.7 10.1 95 0.4 SSW 17 22 9 12 1018.7 - 0.0
05/04:15am 10.3 7.1 9.8 97 0.3 SSW 17 22 9 12 1018.6 - 0.0
05/04:00am 10.2 7.0 9.8 97 0.2 SSW 17 20 9 11 1018.6 - 0.0
05/03:45am 9.9 6.6 9.7 99 0.1 SSW 17 22 9 12 1018.5 - 0.0
05/03:30am 10.0 6.8 9.8 99 0.1 SSW 17 22 9 12 1018.5 - 0.0
05/03:15am 10.1 6.9 10.0 99 0.1 SSW 17 20 9 11 1018.5 - 0.0
05/03:00am 10.1 6.5 9.9 99 0.1 SSW 19 22 10 12 1018.5 - 0.0
05/02:45am 10.4 7.7 10.2 99 0.1 SSW 15 19 8 10 1018.5 - 0.0
05/02:30am 10.5 8.2 10.4 99 0.1 SSW 13 19 7 10 1018.5 - 0.0
05/02:15am 10.5 7.8 10.3 99 0.1 SSW 15 17 8 9 1018.5 - 0.0
05/02:00am 10.9 8.3 10.7 99 0.1 SSW 15 19 8 10 1018.5 - 0.0
05/01:45am 11.1 8.5 10.8 98 0.2 SSW 15 17 8 9 1018.5 - 0.0
05/01:30am 11.5 9.4 11.2 98 0.2 S 13 15 7 8 1018.6 - 0.0
05/01:15am 11.9 9.6 11.6 98 0.2 SSW 15 17 8 9 1018.6 - 0.0
05/01:00am 12.5 10.7 12.1 97 0.2 SSW 13 17 7 9 1018.8 - 0.0
05/12:45am 12.9 11.2 12.5 97 0.2 SSW 13 17 7 9 1018.9 - 0.0
05/12:30am 13.2 11.6 12.8 97 0.2 SSW 13 17 7 9 1018.9 - 0.0
05/12:15am 13.2 11.6 12.8 97 0.2 SSW 13 17 7 9 1018.9 - 0.0
05/12:00am 13.7 13.0 13.2 97 0.3 SSW 9 13 5 7 1019.0 - 0.0
 
Date/Time
EST
Temp
°C
App
Temp
°C
Dew
Point
Rel
Hum
%
Delta-T
°C
Wind Press
QNH
hPa
Press
MSL
hPa
Rain
since 9 am
mm
Dir
 
Spd
km/h
Gust
km/h
Spd
kts
Gust
kts
04/11:45pm 13.9 12.9 13.5 97 0.2 S 11 13 6 7 1018.9 - 0.0
04/11:30pm 14.1 13.2 13.6 97 0.3 S 11 13 6 7 1018.9 - 0.0
04/11:15pm 14.4 13.9 13.9 97 0.3 S 9 13 5 7 1019.1 - 0.0
04/11:00pm 14.7 14.9 14.1 96 0.3 SSW 6 7 3 4 1019.1 - 0.0
04/10:45pm 14.9 15.1 14.2 96 0.4 SSW 6 7 3 4 1019.1 - 0.0
04/10:30pm 15.1 15.4 14.5 96 0.3 S 6 7 3 4 1019.2 - 0.0
04/10:15pm 15.3 15.5 14.6 96 0.4 S 7 11 4 6 1019.1 - 0.0
04/10:00pm 15.4 15.6 14.8 96 0.3 S 7 11 4 6 1019.1 - 0.0
04/09:45pm 15.4 15.6 14.6 95 0.5 S 7 7 4 4 1019.2 - 0.0
04/09:30pm 15.3 15.6 14.5 95 0.5 SSE 6 7 3 4 1019.1 - 0.0
04/09:15pm 15.3 15.9 14.3 94 0.6 SSE 4 7 2 4 1019.0 - 0.0
04/09:00pm 15.7 15.9 14.6 93 0.6 SSE 7 11 4 6 1018.8 - 0.0
04/08:45pm 15.7 15.1 14.5 93 0.7 S 11 17 6 9 1018.6 - 0.0
04/08:30pm 15.7 14.2 14.3 91 0.8 S 15 17 8 9 1018.6 - 0.0
04/08:15pm 15.9 14.4 14.3 90 0.9 SSE 15 17 8 9 1018.3 - 0.0
04/08:00pm 16.1 14.6 14.2 88 1.1 S 15 20 8 11 1018.0 - 0.0
04/07:45pm 16.1 14.1 14.0 87 1.2 S 17 20 9 11 1017.9 - 0.0
04/07:30pm 16.2 14.2 13.8 86 1.4 SSE 17 20 9 11 1017.7 - 0.0
04/07:15pm 16.5 14.5 14.0 85 1.4 S 17 22 9 12 1017.6 - 0.0
04/07:00pm 16.7 14.4 14.1 85 1.5 SSE 19 24 10 13 1017.4 - 0.0
04/06:45pm 16.8 14.5 14.2 85 1.5 SSE 19 22 10 12 1017.2 - 0.0
04/06:30pm 16.9 14.6 14.1 83 1.6 SSE 19 24 10 13 1017.0 - 0.0
04/06:15pm 16.9 14.6 14.0 83 1.7 SSE 19 24 10 13 1016.7 - 0.0
04/06:00pm 16.9 14.9 13.8 82 1.8 SSE 17 22 9 12 1016.4 - 0.0
04/05:45pm 17.2 15.6 13.9 81 1.9 SSE 15 22 8 12 1016.2 - 0.0
04/05:30pm 17.3 15.3 14.0 81 1.9 SSE 17 22 9 12 1016.0 - 0.0
04/05:15pm 17.7 16.1 13.8 78 2.2 SSE 15 22 8 12 1015.8 - 0.0
04/05:00pm 18.1 16.2 13.0 72 2.9 SSE 15 20 8 11 1015.6 - 0.0
04/04:45pm 18.8 17.2 12.8 68 3.4 SSE 13 22 7 12 1015.4 - 0.0
04/04:30pm 19.2 17.0 12.2 64 3.9 SSE 15 22 8 12 1015.2 - 0.0
04/04:15pm 19.6 16.8 11.5 59 4.5 SSE 17 24 9 13 1015.0 - 0.0
04/04:00pm 19.9 17.0 11.0 56 4.9 SSE 17 26 9 14 1014.8 - 0.0
04/03:45pm 19.8 16.2 10.7 55 5.0 SSE 20 28 11 15 1014.7 - 0.0
04/03:30pm 20.4 17.5 11.1 55 5.1 SSE 17 24 9 13 1014.6 - 0.0
04/03:15pm 21.9 19.4 11.1 50 6.0 SE 15 26 8 14 1014.3 - 0.0
04/03:00pm 22.4 20.2 10.7 47 6.5 ESE 13 20 7 11 1014.1 - 0.0
04/02:45pm 23.3 22.2 10.0 43 7.3 NNE 6 11 3 6 1013.9 - 0.0
04/02:30pm 22.7 21.6 9.9 44 7.0 N 6 11 3 6 1013.9 - 0.0
04/02:15pm 22.6 21.4 9.6 43 7.1 NNE 6 9 3 5 1013.9 - 0.0
04/02:00pm 23.3 22.5 9.5 41 7.5 N 4 7 2 4 1013.9 - 0.0
04/01:45pm 23.7 22.9 9.8 41 7.6 WSW 4 7 2 4 1013.9 - 0.0
04/01:30pm 23.7 22.7 10.4 43 7.4 SSW 6 13 3 7 1014.0 - 0.0
04/01:15pm 23.4 22.4 10.4 43 7.2 SSW 6 13 3 7 1014.2 - 0.0
04/01:00pm 22.5 21.3 9.6 44 7.0 WNW 6 17 3 9 1014.2 - 0.0
04/12:45pm 22.3 20.6 9.7 44 6.9 NW 9 17 5 9 1014.3 - 0.0
04/12:30pm 22.3 20.1 9.3 43 7.0 WNW 11 19 6 10 1014.4 - 0.0
04/12:15pm 22.4 21.1 9.8 44 6.9 WNW 7 17 4 9 1014.6 - 0.0
04/12:00pm 22.1 20.9 9.5 44 6.8 WNW 6 11 3 6 1014.8 - 0.0
04/11:45am 22.0 20.9 9.9 46 6.6 NW 6 11 3 6 1015.0 - 0.0
04/11:30am 21.7 20.5 9.6 46 6.5 W 6 11 3 6 1015.2 - 0.0
04/11:15am 21.4 19.7 9.8 47 6.3 W 9 22 5 12 1015.3 - 0.0
04/11:00am 21.2 19.9 9.9 48 6.1 W 7 13 4 7 1015.3 - 0.0
04/10:45am 20.7 19.0 9.7 49 5.9 W 9 17 5 9 1015.3 - 0.0
04/10:30am 20.5 19.4 10.1 51 5.6 W 6 13 3 7 1015.3 - 0.0
04/10:15am 20.3 19.3 10.2 52 5.5 W 6 13 3 7 1015.4 - 0.0
04/10:00am 19.9 19.2 9.9 52 5.4 W 4 7 2 4 1015.4 - 0.0
04/09:45am 19.2 18.5 10.2 56 4.9 NW 4 7 2 4 1015.5 - 0.0
04/09:30am 18.3 17.5 9.6 57 4.6 N 4 7 2 4 1015.5 - 0.0
04/09:15am 18.1 17.3 9.7 58 4.5 NW 4 7 2 4 1015.4 - 0.0
04/09:00am 17.3 16.0 9.2 59 4.2 W 6 11 3 6 1015.3 - 0.0
04/08:45am 16.8 14.9 9.0 60 4.1 WNW 9 13 5 7 1015.0 - 0.0
04/08:30am 16.3 14.7 10.3 67 3.2 WNW 9 13 5 7 1014.9 - 0.0
04/08:15am 14.6 13.4 9.5 71 2.6 WNW 6 13 3 7 1014.7 - 0.0
04/08:00am 15.0 13.6 9.0 67 3.1 NW 6 13 3 7 1014.6 - 0.0
04/07:45am 15.1 12.7 9.9 71 2.7 NW 13 19 7 10 1014.3 - 0.0
04/07:30am 13.4 11.2 9.5 77 2.0 NW 11 17 6 9 1014.2 - 0.0
04/07:15am 12.6 9.8 10.0 84 1.3 NW 15 17 8 9 1013.8 - 0.0
04/07:00am 11.0 8.8 9.2 89 0.9 NW 11 15 6 8 1013.7 - 0.0
04/06:45am 9.8 8.2 7.8 87 1.0 NW 6 7 3 4 1013.5 - 0.0
04/06:30am 10.1 7.9 7.9 86 1.1 NNW 9 13 5 7 1013.2 - 0.0
04/06:15am 10.0 7.4 7.7 86 1.1 NNW 11 15 6 8 1013.0 - 0.0
04/06:00am 10.2 7.5 7.3 82 1.4 NNW 11 17 6 9 1012.7 - 0.0
04/05:45am 11.6 8.7 8.1 79 1.7 NW 13 17 7 9 1012.5 - 0.0
04/05:30am 11.5 8.4 9.0 85 1.3 NNW 15 19 8 10 1012.3 - 0.0
04/05:15am 10.3 8.4 7.7 84 1.3 NNW 7 13 4 7 1012.2 - 0.0
04/05:00am 10.3 8.5 7.2 81 1.5 N 6 9 3 5 1012.0 - 0.0
04/04:45am 11.6 8.6 7.9 78 1.8 NNW 13 19 7 10 1011.8 - 0.0
04/04:30am 11.8 9.0 8.6 81 1.6 NNW 13 19 7 10 1011.7 - 0.0
04/04:15am 11.1 8.5 7.9 81 1.6 N 11 15 6 8 1011.6 - 0.0
04/04:00am 10.9 8.7 7.7 80 1.6 N 9 15 5 8 1011.5 - 0.0
04/03:45am 11.0 8.6 7.2 77 1.8 NNW 9 20 5 11 1011.4 - 0.0
04/03:30am 11.7 9.0 7.2 74 2.2 NNW 11 15 6 8 1011.3 - 0.0
04/03:15am 12.2 9.5 7.5 73 2.3 NNW 11 17 6 9 1011.3 - 0.0
04/03:00am 12.3 9.6 7.3 71 2.4 NNW 11 17 6 9 1011.2 - 0.0
04/02:45am 12.6 9.9 7.5 71 2.5 NNW 11 19 6 10 1011.1 - 0.0
04/02:30am 12.8 9.4 7.7 71 2.5 NNW 15 19 8 10 1011.0 - 0.0
04/02:15am 12.6 9.9 7.4 70 2.5 N 11 17 6 9 1011.1 - 0.0
04/02:00am 12.7 10.0 7.2 69 2.7 N 11 15 6 8 1011.2 - 0.0
04/01:45am 13.3 10.6 7.3 67 2.9 N 11 19 6 10 1011.2 - 0.0
04/01:30am 13.6 10.9 7.5 66 3.0 N 11 17 6 9 1011.2 - 0.0
04/01:15am 13.7 11.0 7.2 65 3.2 N 11 17 6 9 1011.1 - 0.0
04/01:00am 14.3 11.6 7.4 63 3.4 N 11 17 6 9 1011.0 - 0.0
04/12:45am 14.6 11.9 7.4 62 3.6 N 11 17 6 9 1010.9 - 0.0
04/12:30am 14.2 11.8 7.1 62 3.5 N 9 15 5 8 1010.9 - 0.0
04/12:15am 14.6 12.2 6.9 60 3.8 NNW 9 15 5 8 1011.0 - 0.0
04/12:00am 15.0 12.1 6.7 57 4.1 NNW 11 17 6 9 1011.1 - 0.0
 
Date/Time
EST
Temp
°C
App
Temp
°C
Dew
Point
Rel
Hum
%
Delta-T
°C
Wind Press
QNH
hPa
Press
MSL
hPa
Rain
since 9 am
mm
Dir
 
Spd
km/h
Gust
km/h
Spd
kts
Gust
kts
03/11:45pm 15.2 12.4 6.9 57 4.1 NNW 11 17 6 9 1011.1 - 0.0
03/11:30pm 15.3 12.5 6.9 57 4.1 NNW 11 17 6 9 1011.0 - 0.0
03/11:15pm 15.6 12.4 6.9 56 4.3 NNW 13 22 7 12 1011.0 - 0.0
03/11:00pm 15.4 12.5 6.6 55 4.3 NNW 11 22 6 12 1010.9 - 0.0
03/10:45pm 15.7 12.4 6.6 54 4.5 NW 13 17 7 9 1010.8 - 0.0
03/10:30pm 15.4 12.1 6.4 55 4.4 NW 13 19 7 10 1010.7 - 0.0
03/10:15pm 16.2 12.9 6.6 53 4.7 NW 13 17 7 9 1010.5 - 0.0
03/10:00pm 16.4 12.8 6.8 53 4.8 NW 15 19 8 10 1010.3 - 0.0
03/09:45pm 16.2 12.3 6.9 54 4.6 NW 17 22 9 12 1010.3 - 0.0
03/09:30pm 16.2 13.0 6.7 53 4.7 NNW 13 22 7 12 1010.1 - 0.0
03/09:15pm 16.3 13.4 6.5 52 4.8 NW 11 17 6 9 1009.9 - 0.0
03/09:00pm 17.0 13.8 6.7 50 5.1 NW 13 17 7 9 1009.7 - 0.0
03/08:45pm 17.3 13.3 6.5 49 5.4 WNW 17 20 9 11 1009.5 - 0.0
03/08:30pm 17.6 13.9 6.5 48 5.5 WNW 15 20 8 11 1009.3 - 0.0
03/08:15pm 17.6 13.6 6.6 48 5.5 WNW 17 20 9 11 1009.0 - 0.0
03/08:00pm 17.4 13.0 6.5 48 5.4 WNW 19 22 10 12 1008.8 - 0.0
03/07:45pm 17.1 13.4 6.2 48 5.4 NW 15 20 8 11 1008.6 - 0.0
03/07:30pm 17.7 14.7 6.1 46 5.7 NW 11 17 6 9 1008.5 - 0.0
03/07:15pm 18.6 14.1 6.2 44 6.2 NW 19 24 10 13 1008.2 - 0.0
03/07:00pm 18.8 14.1 6.2 43 6.3 WNW 20 26 11 14 1008.0 - 0.0
03/06:45pm 19.2 14.5 6.1 42 6.5 WNW 20 24 11 13 1007.9 - 0.0
03/06:30pm 19.3 14.8 6.0 41 6.6 NW 19 24 10 13 1007.8 - 0.0
03/06:15pm 19.6 15.8 5.9 40 6.8 NW 15 22 8 12 1007.6 - 0.0
03/06:00pm 20.2 15.7 5.9 39 7.2 NW 19 26 10 14 1007.3 - 0.0
03/05:45pm 20.5 15.8 5.9 38 7.3 NW 20 26 11 14 1007.0 - 0.0
03/05:30pm 20.9 16.4 5.9 37 7.5 NW 19 28 10 15 1006.7 - 0.0
03/05:15pm 21.4 16.3 5.9 36 7.8 NW 22 33 12 18 1006.6 - 0.0
03/05:00pm 22.0 17.2 5.8 35 8.2 NW 20 28 11 15 1006.4 - 0.0
03/04:45pm 22.7 17.6 5.8 33 8.6 NW 22 32 12 17 1006.3 - 0.0
03/04:30pm 23.3 18.5 4.9 30 9.2 WNW 19 26 10 14 1006.2 - 0.0
03/04:15pm 23.6 18.2 4.7 29 9.5 WNW 22 32 12 17 1006.1 - 0.0
03/04:00pm 23.8 17.6 4.5 28 9.6 WNW 26 39 14 21 1006.1 - 0.0
03/03:45pm 24.1 18.8 5.1 29 9.6 WNW 22 33 12 18 1006.1 - 0.0
03/03:30pm 24.2 19.7 6.1 31 9.3 WNW 19 28 10 15 1006.1 - 0.0
03/03:15pm 24.2 19.6 6.7 32 9.1 NW 20 33 11 18 1006.2 - 0.0
03/03:00pm 23.9 19.5 6.5 32 9.0 WNW 19 33 10 18 1006.2 - 0.0
03/02:45pm 23.8 19.2 6.7 33 8.9 WNW 20 32 11 17 1006.3 - 0.0
03/02:30pm 23.8 19.2 6.7 33 8.9 WNW 20 33 11 18 1006.5 - 0.0
03/02:15pm 23.6 18.6 6.5 33 8.8 WNW 22 37 12 20 1006.6 - 0.0
03/02:00pm 23.5 18.5 6.4 33 8.8 NW 22 43 12 23 1006.7 - 0.0
03/01:45pm 23.5 19.0 6.8 34 8.7 WNW 20 33 11 18 1006.9 - 0.0

Other Formats:

Comma delimited format used in spreadsheet applications
http://www.bom.gov.au/fwo/IDN60801/IDN60801.95757.axf

JavaScript Object Notation format (JSON) in row-major order
http://www.bom.gov.au/fwo/IDN60801/IDN60801.95757.json